Protégé : Vidéo Thoven Dejardin.

Protégé : Vidéo Thoven Dejardin.

Cette publication est protégée par un mot de passe. Pour la voir, veuillez saisir votre mot de passe ci-dessous :

METAR :

LFQA 160330Z AUTO 00000KT 4000 BR OVC044 M03/M04 Q1029


vue en direct sur l'aérodrome
mentions légales politique de confidentialité
Cochet Concept
cx